Terminal Aerodrome Forecast
Issued by NWS Spokane, WA

Home | Current Version | Previous Version | Text Only | Print | Product List | Glossary On
Versions: 1 2 3 4 5 6 7 8 9 10 11 12 13 14 15 16 17 18 19 20 21 22 23 24 25 26
000
FTUS46 KOTX 161120
TAFGEG
TAF
KGEG 161120Z 1612/1712 06006KT P6SM BKN200
     FM161400 06005KT P6SM SCT140 BKN200
     FM162000 23006KT P6SM BKN200
     FM170300 VRB03KT P6SM BKN200=

USA.gov is the U.S. government's official web portal to all federal, state and local government web resources and services.